createdAt,value
2017-09-07T00:01:13.935Z,1011.5
2017-09-07T00:11:30.311Z,1011.4
2017-09-07T00:21:46.892Z,1011.3
2017-09-07T00:32:02.497Z,1011.3
2017-09-07T00:42:18.660Z,1011.3
2017-09-07T00:52:34.904Z,1011.2
2017-09-07T01:02:51.661Z,1011.1
2017-09-07T01:13:07.476Z,1011.0
2017-09-07T01:23:20.655Z,1011.1
2017-09-07T01:33:36.830Z,1011.1
2017-09-07T01:43:53.247Z,1011.0
2017-09-07T01:54:09.303Z,1011.1
2017-09-07T02:04:25.939Z,1011.1
2017-09-07T02:14:41.758Z,1011.0
2017-09-07T02:24:57.975Z,1011.0
2017-09-07T02:35:14.264Z,1011.0
2017-09-07T02:45:30.453Z,1010.9
2017-09-07T02:55:46.563Z,1010.9
2017-09-07T03:06:03.403Z,1010.8
2017-09-07T03:16:19.211Z,1010.7
2017-09-07T03:26:35.121Z,1010.7
2017-09-07T03:36:50.657Z,1010.7
2017-09-07T03:47:06.726Z,1010.7
2017-09-07T03:57:23.187Z,1010.7
2017-09-07T04:07:39.283Z,1010.7
2017-09-07T04:17:55.186Z,1010.7
2017-09-07T04:28:10.802Z,1010.7
2017-09-07T04:38:27.063Z,1010.7
2017-09-07T04:48:43.051Z,1010.6
2017-09-07T04:58:59.508Z,1010.6
2017-09-07T05:09:15.263Z,1010.5
2017-09-07T05:19:31.745Z,1010.6
2017-09-07T05:29:47.803Z,1010.7
2017-09-07T05:40:06.641Z,1010.8
2017-09-07T05:50:22.341Z,1010.8
2017-09-07T06:00:39.000Z,1011.0
2017-09-07T06:10:54.644Z,1010.8
2017-09-07T06:21:10.987Z,1011.0
2017-09-07T06:31:27.096Z,1010.9
2017-09-07T06:41:43.256Z,1011.0
2017-09-07T06:51:59.434Z,1011.0
2017-09-07T07:02:16.112Z,1010.9
2017-09-07T07:12:32.027Z,1010.9
2017-09-07T07:22:48.041Z,1010.8
2017-09-07T07:33:01.202Z,1010.9
2017-09-07T07:43:14.509Z,1011.0
2017-09-07T07:54:01.220Z,1011.1
2017-09-07T08:04:17.568Z,1011.2
2017-09-07T08:14:33.992Z,1011.2
2017-09-07T08:24:50.804Z,1011.1
2017-09-07T08:35:07.151Z,1011.1
2017-09-07T08:45:23.644Z,1011.0
2017-09-07T08:56:12.357Z,1011.1
2017-09-07T09:06:28.392Z,1010.8
2017-09-07T09:16:45.017Z,1010.8
2017-09-07T09:27:00.918Z,1010.8
2017-09-07T09:37:26.993Z,1010.4
2017-09-07T09:47:43.369Z,1010.4
2017-09-07T09:57:59.808Z,1010.4
2017-09-07T10:08:15.700Z,1010.2
2017-09-07T10:18:32.064Z,1010.3
2017-09-07T10:28:48.095Z,1010.2
2017-09-07T10:39:04.599Z,1010.0
2017-09-07T10:49:20.585Z,1009.7
2017-09-07T10:59:36.909Z,1010.0
2017-09-07T11:09:52.988Z,1009.8
2017-09-07T11:20:09.533Z,1009.6
2017-09-07T11:30:25.431Z,1009.5
2017-09-07T11:40:41.874Z,1009.7
2017-09-07T11:50:57.964Z,1009.6
2017-09-07T12:01:14.467Z,1009.6
2017-09-07T12:11:30.338Z,1010.2
2017-09-07T12:21:46.749Z,1010.1
2017-09-07T12:32:01.285Z,1010.0
2017-09-07T12:42:17.560Z,1009.8
2017-09-07T12:52:33.765Z,1009.6
2017-09-07T13:02:49.861Z,1009.7
2017-09-07T13:13:06.061Z,1008.8
2017-09-07T13:23:22.165Z,1009.1
2017-09-07T13:34:08.755Z,1009.0
2017-09-07T13:44:25.059Z,1008.6
2017-09-07T13:54:41.517Z,1008.7
2017-09-07T14:04:57.586Z,1008.7
2017-09-07T14:15:14.497Z,1008.7
2017-09-07T14:25:30.712Z,1008.7
2017-09-07T14:35:47.282Z,1008.8
2017-09-07T14:46:03.363Z,1008.9
2017-09-07T14:56:19.897Z,1009.0
2017-09-07T15:06:35.925Z,1009.1
2017-09-07T15:17:25.572Z,1008.9
2017-09-07T15:27:41.742Z,1008.6
2017-09-07T15:37:57.980Z,1008.4
2017-09-07T15:48:13.997Z,1008.3
2017-09-07T15:58:30.554Z,1008.3
2017-09-07T16:08:47.104Z,1008.2
2017-09-07T16:19:02.957Z,1008.3
2017-09-07T16:29:19.322Z,1008.2
2017-09-07T16:39:35.392Z,1008.2
2017-09-07T16:49:51.525Z,1008.2
2017-09-07T17:00:07.729Z,1008.2
2017-09-07T17:10:24.275Z,1008.2
2017-09-07T17:20:40.231Z,1008.1
2017-09-07T17:30:56.578Z,1008.0
2017-09-07T17:41:12.564Z,1008.0
2017-09-07T17:51:28.641Z,1008.0
2017-09-07T18:01:45.187Z,1008.0
2017-09-07T18:12:01.296Z,1008.0
2017-09-07T18:22:17.519Z,1008.0
2017-09-07T18:32:33.988Z,1008.0
2017-09-07T18:42:50.093Z,1008.1
2017-09-07T18:53:36.795Z,1008.2
2017-09-07T19:03:53.749Z,1008.0
2017-09-07T19:14:09.170Z,1007.9
2017-09-07T19:24:25.493Z,1007.9
2017-09-07T19:34:42.033Z,1007.8
2017-09-07T19:44:57.809Z,1007.7
2017-09-07T19:55:13.531Z,1007.6
2017-09-07T20:05:29.542Z,1007.6
2017-09-07T20:15:45.696Z,1007.5
2017-09-07T20:26:02.035Z,1007.4
2017-09-07T20:36:18.115Z,1007.3
2017-09-07T20:46:34.186Z,1007.0
2017-09-07T20:56:49.661Z,1006.9
2017-09-07T21:07:05.788Z,1006.7
2017-09-07T21:17:22.047Z,1006.6
2017-09-07T21:27:37.987Z,1006.5
2017-09-07T21:37:53.485Z,1006.5
2017-09-07T21:48:09.544Z,1006.2
2017-09-07T21:58:24.863Z,1006.0
2017-09-07T22:08:41.029Z,1006.0
2017-09-07T22:18:57.287Z,1005.8
2017-09-07T22:29:13.558Z,1005.9
2017-09-07T22:39:29.760Z,1005.5
2017-09-07T22:49:46.096Z,1005.5
2017-09-07T23:00:01.966Z,1005.3
2017-09-07T23:10:15.087Z,1005.3
2017-09-07T23:20:30.419Z,1005.1
2017-09-07T23:30:46.719Z,1004.9
2017-09-07T23:41:02.995Z,1004.6
2017-09-07T23:55:16.513Z,1004.4
